Time;durP1;ratioP1;P1;durP2;ratioP2;P2;SDS_P1;SDS_P2;PMS_P1;PMS_P2;Temp;Humidity;BMP_temperature;BMP_pressure;BME280_temperature;BME280_humidity;BME280_pressure;Samples;Min_cycle;Max_cycle;Signal;HPM_P1;HPM_P2
2021/12/22 00:00:49;;;;;;;17.15;10.63;;;-0.30;68.50;;;;;;4988462;28;20041;-76
2021/12/22 00:03:18;;;;;;;14.68;9.82;;;-0.30;68.50;;;;;;4995178;28;20041;-77
2021/12/22 00:05:47;;;;;;;14.38;10.10;;;-0.30;68.40;;;;;;5005169;28;20048;-76
2021/12/22 00:08:15;;;;;;;15.10;10.43;;;-0.30;68.50;;;;;;4997892;28;20409;-76
2021/12/22 00:10:44;;;;;;;15.55;10.20;;;-0.30;68.40;;;;;;4987202;28;20129;-75
2021/12/22 00:13:12;;;;;;;15.38;11.00;;;-0.30;68.40;;;;;;5011427;28;20396;-76
2021/12/22 00:15:39;;;;;;;15.20;9.88;;;-0.40;68.40;;;;;;5018870;28;20038;-76
2021/12/22 00:18:06;;;;;;;12.98;9.93;;;-0.40;68.40;;;;;;4993124;28;20054;-75
2021/12/22 00:20:33;;;;;;;14.05;9.38;;;-0.40;68.40;;;;;;5010607;28;20456;-76
2021/12/22 00:23:01;;;;;;;16.33;9.77;;;-0.40;68.40;;;;;;4987695;28;20045;-76
2021/12/22 00:25:28;;;;;;;14.65;9.15;;;-0.40;68.40;;;;;;5006758;28;20049;-76
2021/12/22 00:27:56;;;;;;;12.65;8.50;;;-0.40;68.40;;;;;;5011338;28;20049;-76
2021/12/22 00:30:24;;;;;;;14.45;8.13;;;-0.40;68.50;;;;;;4994841;28;20054;-76
2021/12/22 00:32:55;;;;;;;16.00;9.05;;;-0.40;68.50;;;;;;5003752;28;20041;-75
2021/12/22 00:35:30;;;;;;;15.13;10.82;;;-0.40;68.40;;;;;;5008600;28;20140;-76
2021/12/22 00:37:57;;;;;;;11.95;9.05;;;-0.40;68.40;;;;;;4999413;28;20087;-75
2021/12/22 00:40:24;;;;;;;16.17;9.90;;;-0.40;68.40;;;;;;4994759;28;20119;-74
2021/12/22 00:42:51;;;;;;;13.52;10.05;;;-0.40;68.40;;;;;;5010792;28;20145;-76
2021/12/22 00:45:23;;;;;;;15.13;10.27;;;-0.50;68.30;;;;;;5001129;28;20444;-75
2021/12/22 00:47:50;;;;;;;14.07;8.63;;;-0.40;68.30;;;;;;4988906;28;20044;-76
2021/12/22 00:50:17;;;;;;;12.60;7.93;;;-0.50;68.20;;;;;;5011420;28;20040;-76
2021/12/22 00:52:44;;;;;;;13.55;8.63;;;-0.50;68.30;;;;;;5003785;28;20049;-76
2021/12/22 00:55:14;;;;;;;13.40;8.75;;;-0.50;68.30;;;;;;5022867;28;20482;-76
2021/12/22 00:57:41;;;;;;;14.55;8.85;;;-0.50;68.30;;;;;;5031391;28;20037;-74
2021/12/22 01:00:08;;;;;;;12.13;8.55;;;-0.50;68.30;;;;;;4993733;28;20096;-76
2021/12/22 01:02:35;;;;;;;16.05;8.73;;;-0.50;68.40;;;;;;5014674;28;20428;-76
2021/12/22 01:05:03;;;;;;;17.05;10.07;;;-0.50;68.40;;;;;;5005972;28;20132;-76
2021/12/22 01:07:30;;;;;;;16.30;8.85;;;-0.50;68.40;;;;;;4993126;28;20049;-74
2021/12/22 01:10:19;;;;;;;18.05;7.95;;;-0.50;68.40;;;;;;5019882;28;20041;-76
2021/12/22 01:12:46;;;;;;;14.23;7.82;;;-0.50;68.50;;;;;;4974743;28;20054;-75
2021/12/22 01:15:14;;;;;;;17.33;8.38;;;-0.50;68.50;;;;;;5006820;28;20521;-76
2021/12/22 01:17:47;;;;;;;14.43;7.85;;;-0.50;68.50;;;;;;5013944;28;20056;-76
2021/12/22 01:20:31;;;;;;;15.18;8.13;;;-0.50;68.60;;;;;;5013676;28;20117;-77
2021/12/22 01:23:05;;;;;;;12.02;7.53;;;-0.50;68.50;;;;;;5015299;28;20042;-76
2021/12/22 01:25:42;;;;;;;11.05;7.55;;;-0.50;68.40;;;;;;5031037;28;20041;-75
2021/12/22 01:28:09;;;;;;;12.18;7.70;;;-0.50;68.60;;;;;;5009278;28;20041;-75
2021/12/22 01:30:42;;;;;;;14.10;7.28;;;-0.50;68.50;;;;;;4997364;28;20485;-76
2021/12/22 01:33:09;;;;;;;12.95;6.90;;;-0.50;68.40;;;;;;5031389;28;20410;-76
2021/12/22 01:35:37;;;;;;;12.70;7.72;;;-0.50;68.40;;;;;;4997378;28;20460;-76
2021/12/22 01:38:05;;;;;;;13.90;7.85;;;-0.50;68.40;;;;;;5012633;28;20516;-76
2021/12/22 01:40:35;;;;;;;11.57;6.38;;;-0.50;68.40;;;;;;5005471;28;20502;-76
2021/12/22 01:43:04;;;;;;;11.73;7.68;;;-0.50;68.40;;;;;;5017845;28;20057;-76
2021/12/22 01:49:08;;;;;;;14.80;7.72;;;-0.60;68.50;;;;;;5013206;28;20049;-76
2021/12/22 01:51:56;;;;;;;15.07;8.20;;;-0.50;68.40;;;;;;4998845;28;20070;-76
2021/12/22 01:54:41;;;;;;;11.23;6.70;;;-0.50;68.50;;;;;;5011049;28;20037;-76
2021/12/22 01:57:12;;;;;;;9.88;6.30;;;-0.50;68.40;;;;;;4997009;28;20049;-76
2021/12/22 01:59:41;;;;;;;13.97;7.17;;;-0.60;68.30;;;;;;4997478;28;20048;-76
2021/12/22 02:02:11;;;;;;;13.98;7.25;;;-0.60;68.30;;;;;;5013521;28;20064;-76
2021/12/22 02:04:40;;;;;;;11.23;6.88;;;-0.60;68.30;;;;;;5012267;28;20038;-77
2021/12/22 02:07:09;;;;;;;11.52;7.35;;;-0.60;68.30;;;;;;5012796;28;20045;-76
2021/12/22 02:09:57;;;;;;;11.55;7.70;;;-0.60;68.20;;;;;;4980639;28;20045;-76
2021/12/22 02:12:26;;;;;;;12.05;7.10;;;-0.60;68.30;;;;;;5005663;28;20409;-76
2021/12/22 02:14:53;;;;;;;14.05;8.15;;;-0.60;68.20;;;;;;5026765;28;20034;-76
2021/12/22 02:17:19;;;;;;;10.98;7.03;;;-0.60;68.20;;;;;;5009043;28;20124;-76
2021/12/22 02:19:47;;;;;;;10.13;5.97;;;-0.60;68.20;;;;;;5002072;28;20042;-76
2021/12/22 02:22:17;;;;;;;11.50;6.10;;;-0.70;68.10;;;;;;5012732;28;20421;-77
2021/12/22 02:24:49;;;;;;;11.73;6.45;;;-0.60;68.20;;;;;;4996595;28;20064;-76
2021/12/22 02:27:35;;;;;;;10.68;6.82;;;-0.70;68.20;;;;;;4998433;28;20046;-75
2021/12/22 02:30:06;;;;;;;10.25;6.38;;;-0.60;68.10;;;;;;4989575;28;20037;-76
2021/12/22 02:35:03;;;;;;;9.27;6.00;;;-0.70;68.10;;;;;;5012247;28;20049;-76
2021/12/22 02:37:31;;;;;;;13.80;5.55;;;-0.70;68.10;;;;;;4995317;28;20046;-76
2021/12/22 02:40:08;;;;;;;9.65;5.70;;;-0.70;68.10;;;;;;5013131;28;20037;-75
2021/12/22 02:42:35;;;;;;;12.65;6.60;;;-0.70;68.10;;;;;;4996266;28;20053;-76
2021/12/22 02:45:16;;;;;;;11.20;5.60;;;-0.70;68.10;;;;;;5029681;28;20489;-76
2021/12/22 02:47:43;;;;;;;8.90;5.45;;;-0.70;68.10;;;;;;4996850;28;20038;-76
2021/12/22 02:50:12;;;;;;;8.57;6.13;;;-0.70;68.20;;;;;;5003043;28;20056;-76
2021/12/22 02:53:15;;;;;;;10.48;5.53;;;-0.80;68.10;;;;;;5030149;28;20501;-76
2021/12/22 02:55:46;;;;;;;11.73;5.95;;;-0.80;68.10;;;;;;4999316;28;20042;-76
2021/12/22 02:58:27;;;;;;;8.80;5.72;;;-0.80;68.10;;;;;;4989727;28;20049;-78
2021/12/22 03:03:47;;;;;;;8.20;5.88;;;-0.80;68.10;;;;;;4997205;28;20564;-74
2021/12/22 03:06:21;;;;;;;7.40;5.63;;;-0.80;68.20;;;;;;4995516;28;20410;-74
2021/12/22 03:08:48;;;;;;;8.45;5.60;;;-0.80;68.20;;;;;;5014801;28;20049;-74
2021/12/22 03:11:15;;;;;;;10.30;5.40;;;-0.80;68.10;;;;;;4995928;28;20046;-75
2021/12/22 03:13:41;;;;;;;12.27;5.65;;;-0.80;68.10;;;;;;5030011;28;20052;-74
2021/12/22 03:16:08;;;;;;;9.57;5.32;;;-0.80;68.00;;;;;;5003516;28;20088;-74
2021/12/22 03:18:36;;;;;;;9.25;4.88;;;-0.80;68.00;;;;;;4991191;28;20693;-74
2021/12/22 03:21:18;;;;;;;12.38;5.75;;;-0.80;68.00;;;;;;5030140;28;20056;-78
2021/12/22 03:23:46;;;;;;;11.93;5.30;;;-0.80;68.00;;;;;;5010658;28;20405;-74
2021/12/22 03:26:16;;;;;;;10.07;5.78;;;-0.80;68.00;;;;;;5015166;28;20064;-75
2021/12/22 03:28:44;;;;;;;13.05;5.85;;;-0.90;68.00;;;;;;5003860;28;20497;-75
2021/12/22 03:31:12;;;;;;;8.73;5.22;;;-0.90;68.00;;;;;;5029282;28;20037;-74
2021/12/22 03:33:39;;;;;;;6.95;4.63;;;-0.90;68.10;;;;;;5006874;28;20490;-73
2021/12/22 03:36:07;;;;;;;9.02;5.55;;;-0.80;68.80;;;;;;5016184;28;20452;-78
2021/12/22 03:38:36;;;;;;;8.93;5.28;;;-0.80;68.30;;;;;;5000551;28;20113;-74
2021/12/22 03:41:05;;;;;;;11.73;6.10;;;-0.90;68.30;;;;;;4981605;28;20037;-78
2021/12/22 03:43:32;;;;;;;7.43;5.03;;;-0.90;68.20;;;;;;4982351;28;20050;-74
2021/12/22 03:45:59;;;;;;;9.40;6.05;;;-0.90;68.20;;;;;;5004865;28;20375;-74
2021/12/22 03:48:26;;;;;;;12.82;5.70;;;-0.90;68.20;;;;;;4990049;28;20050;-74
2021/12/22 03:50:53;;;;;;;8.52;5.82;;;-0.90;68.20;;;;;;4992663;28;20070;-78
2021/12/22 03:53:21;;;;;;;12.52;5.75;;;-0.90;68.20;;;;;;5006972;28;20493;-74
2021/12/22 03:55:48;;;;;;;9.32;5.32;;;-0.90;68.20;;;;;;4991423;28;20033;-77
2021/12/22 03:58:15;;;;;;;9.27;5.97;;;-0.90;68.30;;;;;;5004942;28;20141;-74
2021/12/22 04:00:43;;;;;;;11.15;5.18;;;-0.90;68.30;;;;;;4992365;28;20049;-74
2021/12/22 04:03:11;;;;;;;9.02;5.50;;;-0.90;68.30;;;;;;4971581;28;20054;-74
2021/12/22 04:05:37;;;;;;;10.32;7.15;;;-0.90;68.20;;;;;;4998823;28;21104;-74
2021/12/22 04:08:04;;;;;;;7.85;5.07;;;-0.90;68.20;;;;;;5000116;28;20068;-74
2021/12/22 04:10:31;;;;;;;13.50;5.90;;;-0.90;68.20;;;;;;5007027;28;20038;-75
2021/12/22 04:12:58;;;;;;;10.07;5.10;;;-0.90;68.10;;;;;;5002033;28;20053;-74
2021/12/22 04:15:27;;;;;;;9.20;6.80;;;-0.90;68.10;;;;;;5001245;28;20041;-74
2021/12/22 04:17:54;;;;;;;6.50;4.40;;;-0.90;68.10;;;;;;5029278;28;20061;-75
2021/12/22 04:20:22;;;;;;;10.15;5.00;;;-0.90;68.10;;;;;;4998034;28;20055;-75
2021/12/22 04:22:49;;;;;;;9.32;5.13;;;-0.90;68.10;;;;;;4989449;28;20038;-74
2021/12/22 04:25:21;;;;;;;10.32;5.05;;;-0.90;68.00;;;;;;4994412;28;20080;-74
2021/12/22 04:27:51;;;;;;;8.52;5.00;;;-0.90;68.00;;;;;;4972986;28;20046;-76
2021/12/22 04:30:19;;;;;;;8.98;5.10;;;-0.90;68.00;;;;;;5018502;28;20049;-78
2021/12/22 04:32:46;;;;;;;7.15;4.88;;;-0.90;68.00;;;;;;5015564;28;20051;-74
2021/12/22 04:35:13;;;;;;;7.13;4.95;;;-1.00;68.50;;;;;;5032362;28;20386;-76
2021/12/22 04:37:40;;;;;;;10.45;5.13;;;-0.90;68.00;;;;;;5003231;28;20046;-74
2021/12/22 04:40:07;;;;;;;9.20;5.22;;;-1.00;67.90;;;;;;4991014;28;20045;-75
2021/12/22 04:42:34;;;;;;;10.13;5.18;;;-1.00;67.80;;;;;;5014939;28;20041;-75
2021/12/22 04:45:05;;;;;;;10.63;5.85;;;-1.00;67.80;;;;;;5009031;28;20049;-74
2021/12/22 04:47:33;;;;;;;7.57;4.57;;;-1.00;67.80;;;;;;4995302;28;20057;-76
2021/12/22 04:50:01;;;;;;;8.10;5.20;;;-1.00;67.70;;;;;;4994337;28;20041;-77
2021/12/22 04:52:38;;;;;;;8.00;5.18;;;-1.00;67.70;;;;;;5014825;28;20077;-76
2021/12/22 04:55:05;;;;;;;10.73;5.10;;;-1.00;67.70;;;;;;5032564;28;20042;-75
2021/12/22 04:57:32;;;;;;;10.32;5.10;;;-1.00;67.70;;;;;;4999209;28;20042;-75
2021/12/22 05:00:01;;;;;;;8.68;4.50;;;-1.00;67.70;;;;;;5013016;28;20049;-74
2021/12/22 05:02:28;;;;;;;6.10;4.70;;;-1.10;68.30;;;;;;5008967;28;20450;-75
2021/12/22 05:04:55;;;;;;;7.47;5.47;;;-1.10;67.60;;;;;;5014336;28;20116;-74
2021/12/22 05:07:21;;;;;;;8.45;5.57;;;-1.10;67.60;;;;;;4995358;28;20045;-78
2021/12/22 05:09:48;;;;;;;9.98;4.82;;;-1.10;67.60;;;;;;5009066;28;20038;-74
2021/12/22 05:12:15;;;;;;;7.18;4.70;;;-1.10;67.60;;;;;;5002092;28;20038;-74
2021/12/22 05:14:47;;;;;;;10.07;5.28;;;-1.10;67.60;;;;;;5011146;28;20057;-75
2021/12/22 05:17:20;;;;;;;4.28;3.08;;;-1.10;67.60;;;;;;4992929;28;20559;-74
2021/12/22 05:19:47;;;;;;;6.03;4.32;;;-1.10;67.60;;;;;;4998879;28;20029;-74
2021/12/22 05:22:15;;;;;;;6.65;5.03;;;-1.10;67.70;;;;;;5032100;28;20402;-74
2021/12/22 05:24:42;;;;;;;9.20;5.25;;;-1.20;67.60;;;;;;5031806;28;20041;-79
2021/12/22 05:27:11;;;;;;;7.82;5.10;;;-1.10;67.70;;;;;;5015224;28;20043;-76
2021/12/22 05:29:39;;;;;;;9.93;4.53;;;-1.20;67.60;;;;;;5021533;28;20042;-75
2021/12/22 05:32:06;;;;;;;9.50;5.93;;;-1.20;67.60;;;;;;4998493;28;20141;-75
2021/12/22 05:34:33;;;;;;;8.85;4.85;;;-1.20;67.60;;;;;;5013755;28;20395;-77
2021/12/22 05:37:00;;;;;;;8.77;5.18;;;-1.20;67.70;;;;;;4993699;28;20049;-74
2021/12/22 05:39:27;;;;;;;7.68;4.90;;;-1.10;67.70;;;;;;4974469;28;20076;-76
2021/12/22 05:41:55;;;;;;;10.43;5.10;;;-1.20;67.60;;;;;;4992618;28;20042;-74
2021/12/22 05:44:22;;;;;;;8.65;5.82;;;-1.20;67.60;;;;;;5017295;28;20049;-77
2021/12/22 05:46:49;;;;;;;6.82;5.20;;;-1.20;67.60;;;;;;5019448;28;20103;-74
2021/12/22 05:49:16;;;;;;;6.38;5.10;;;-1.20;67.60;;;;;;4997201;28;20050;-74
2021/12/22 05:51:43;;;;;;;8.32;5.00;;;-1.20;67.60;;;;;;4997909;28;20037;-74
2021/12/22 05:54:10;;;;;;;6.97;4.65;;;-1.20;67.60;;;;;;5001071;28;20057;-74
2021/12/22 05:56:37;;;;;;;7.55;5.65;;;-1.20;67.60;;;;;;5010255;28;20045;-74
2021/12/22 05:59:04;;;;;;;8.95;5.07;;;-1.20;67.60;;;;;;4996355;28;20060;-74
2021/12/22 06:01:30;;;;;;;8.40;4.95;;;-1.20;67.60;;;;;;5014026;28;20049;-76
2021/12/22 06:04:00;;;;;;;10.77;7.15;;;-1.20;67.60;;;;;;4992426;28;20046;-76
2021/12/22 06:06:28;;;;;;;8.75;5.10;;;-1.20;67.70;;;;;;5018453;28;20557;-77
2021/12/22 06:08:55;;;;;;;8.10;5.05;;;-1.20;67.60;;;;;;5009350;28;20046;-75
2021/12/22 06:11:22;;;;;;;6.55;4.80;;;-1.20;67.60;;;;;;5005434;28;20046;-77
2021/12/22 06:13:52;;;;;;;7.10;4.90;;;-1.20;67.60;;;;;;4999137;28;20049;-76
2021/12/22 06:16:18;;;;;;;7.22;5.18;;;-1.20;67.60;;;;;;4997487;28;20034;-74
2021/12/22 06:18:47;;;;;;;11.07;6.30;;;-1.20;67.60;;;;;;4989957;28;20042;-74
2021/12/22 06:21:14;;;;;;;9.25;5.50;;;-1.20;67.70;;;;;;4991585;28;20073;-76
2021/12/22 06:23:41;;;;;;;10.35;6.18;;;-1.20;67.70;;;;;;5002082;28;20041;-76
2021/12/22 06:26:08;;;;;;;13.85;6.95;;;-1.30;67.60;;;;;;4971765;28;20050;-74
2021/12/22 06:28:35;;;;;;;12.60;8.07;;;-1.30;67.60;;;;;;4972269;28;20054;-74
2021/12/22 06:31:03;;;;;;;9.93;6.72;;;-1.30;67.50;;;;;;4973592;28;20046;-75
2021/12/22 06:33:30;;;;;;;8.82;6.63;;;-1.20;67.60;;;;;;4992937;28;20057;-75
2021/12/22 06:35:56;;;;;;;11.15;6.75;;;-1.30;67.50;;;;;;4981519;28;20050;-77
2021/12/22 06:38:23;;;;;;;10.63;6.65;;;-1.30;68.10;;;;;;4988858;28;20054;-76
2021/12/22 06:40:50;;;;;;;11.98;6.90;;;-1.30;67.50;;;;;;4981073;28;20654;-75
2021/12/22 06:43:17;;;;;;;10.57;6.43;;;-1.30;67.50;;;;;;5016471;28;20053;-74
2021/12/22 06:45:44;;;;;;;8.90;6.03;;;-1.30;67.50;;;;;;4995066;28;20041;-77
2021/12/22 06:48:11;;;;;;;12.25;7.50;;;-1.30;67.50;;;;;;4987524;28;20034;-74
2021/12/22 06:50:38;;;;;;;9.30;5.82;;;-1.30;67.50;;;;;;4994689;28;20038;-74
2021/12/22 06:53:05;;;;;;;9.15;6.07;;;-1.30;67.50;;;;;;4982741;28;20046;-76
2021/12/22 06:55:32;;;;;;;9.77;5.97;;;-1.30;67.50;;;;;;5000028;28;20045;-75
2021/12/22 06:58:00;;;;;;;11.80;5.82;;;-1.30;67.60;;;;;;5009915;28;20052;-76
2021/12/22 07:00:28;;;;;;;9.13;6.10;;;-1.30;67.60;;;;;;4975249;28;20054;-72
2021/12/22 07:02:57;;;;;;;12.82;5.47;;;-1.30;67.50;;;;;;5013346;28;20039;-75
2021/12/22 07:05:24;;;;;;;11.52;6.32;;;-1.30;67.60;;;;;;4986659;28;20751;-73
2021/12/22 07:07:51;;;;;;;10.35;6.18;;;-1.30;67.50;;;;;;5001432;28;20054;-74
2021/12/22 07:10:19;;;;;;;11.48;6.72;;;-1.30;67.60;;;;;;4966769;28;20402;-74
2021/12/22 07:12:47;;;;;;;11.18;6.60;;;-1.30;67.60;;;;;;4993576;28;20117;-76
2021/12/22 07:15:17;;;;;;;8.52;6.60;;;-1.30;67.60;;;;;;4987668;28;20088;-75
2021/12/22 07:17:47;;;;;;;11.93;7.32;;;-1.30;67.60;;;;;;4989953;28;20667;-76
2021/12/22 07:20:15;;;;;;;12.88;6.22;;;-1.30;67.60;;;;;;4990517;28;20062;-76
2021/12/22 07:22:42;;;;;;;9.10;6.10;;;-1.30;67.60;;;;;;4991432;28;20045;-74
2021/12/22 07:25:12;;;;;;;8.25;5.43;;;-1.30;67.70;;;;;;4961122;28;20050;-75
2021/12/22 07:27:39;;;;;;;9.82;5.93;;;-1.30;67.80;;;;;;4996607;28;20042;-76
2021/12/22 07:30:07;;;;;;;9.70;5.55;;;-1.30;67.80;;;;;;5012251;28;20045;-75
2021/12/22 07:32:34;;;;;;;10.93;5.03;;;-1.30;67.80;;;;;;4997937;28;20045;-75
2021/12/22 07:35:15;;;;;;;10.73;6.30;;;-1.30;67.90;;;;;;4988938;28;20083;-76
2021/12/22 07:37:50;;;;;;;11.30;5.97;;;-1.30;68.00;;;;;;4993815;28;20049;-75
2021/12/22 07:40:19;;;;;;;8.35;6.38;;;-1.30;68.00;;;;;;4984958;28;20065;-73
2021/12/22 07:42:46;;;;;;;8.93;6.43;;;-1.30;68.00;;;;;;4958362;28;20849;-74
2021/12/22 07:45:13;;;;;;;11.65;7.85;;;-1.30;68.00;;;;;;4966288;28;20058;-73
2021/12/22 07:47:40;;;;;;;10.13;8.13;;;-1.20;68.00;;;;;;4952209;28;20050;-73
2021/12/22 07:50:08;;;;;;;12.57;8.05;;;-1.20;68.10;;;;;;4989642;28;20042;-74
2021/12/22 07:52:35;;;;;;;12.43;7.65;;;-1.20;68.20;;;;;;5014129;28;20065;-74
2021/12/22 07:55:03;;;;;;;12.93;9.40;;;-1.20;68.30;;;;;;4987578;28;20062;-74
2021/12/22 07:57:30;;;;;;;9.45;6.93;;;-1.20;68.30;;;;;;4968467;28;20037;-74
2021/12/22 07:59:56;;;;;;;10.10;7.55;;;-1.20;68.30;;;;;;4992357;28;20041;-74
2021/12/22 08:02:23;;;;;;;9.20;7.00;;;-1.10;68.30;;;;;;4971497;28;20057;-73
2021/12/22 08:04:50;;;;;;;10.30;6.28;;;-1.10;68.40;;;;;;4981242;28;20145;-74
2021/12/22 08:07:17;;;;;;;9.27;7.10;;;-1.10;68.40;;;;;;4989016;28;20509;-74
2021/12/22 08:09:44;;;;;;;10.38;7.35;;;-1.10;68.40;;;;;;4978374;28;20041;-74
2021/12/22 08:12:11;;;;;;;14.73;6.80;;;-1.10;68.50;;;;;;4994464;28;20516;-74
2021/12/22 08:14:39;;;;;;;11.68;6.72;;;-1.00;69.20;;;;;;4965423;28;20034;-74
2021/12/22 08:17:07;;;;;;;11.80;6.63;;;-1.00;68.60;;;;;;4988182;28;20538;-74
2021/12/22 08:19:34;;;;;;;14.02;7.57;;;-1.00;68.70;;;;;;4997345;23;20045;-56
2021/12/22 08:22:02;;;;;;;12.73;7.13;;;-0.90;68.80;;;;;;4997282;28;20038;-56
2021/12/22 08:24:29;;;;;;;8.98;6.50;;;-0.90;68.80;;;;;;4999951;28;20050;-52
2021/12/22 08:26:56;;;;;;;10.15;7.18;;;-0.90;68.80;;;;;;5014236;28;20095;-56
2021/12/22 08:29:26;;;;;;;12.75;6.70;;;-0.80;68.90;;;;;;5001349;28;20101;-53
2021/12/22 08:31:53;;;;;;;12.38;6.35;;;-0.80;69.00;;;;;;4996140;28;20449;-55
2021/12/22 08:34:27;;;;;;;10.20;6.55;;;-0.70;69.10;;;;;;4994268;28;20046;-55
2021/12/22 08:39:40;;;;;;;11.65;6.70;;;-0.70;69.10;;;;;;5001820;28;20128;-56
2021/12/22 08:42:08;;;;;;;10.77;7.30;;;-0.60;69.20;;;;;;5014894;28;20464;-56
2021/12/22 08:44:34;;;;;;;12.07;9.30;;;-0.60;69.30;;;;;;5006202;28;20064;-53
2021/12/22 08:47:01;;;;;;;14.20;7.65;;;-0.50;69.40;;;;;;5012080;28;20099;-55
2021/12/22 08:49:30;;;;;;;14.85;7.78;;;-0.50;69.40;;;;;;5002433;28;20042;-55
2021/12/22 08:51:57;;;;;;;14.00;8.13;;;-0.50;70.10;;;;;;5010648;28;20104;-55
2021/12/22 08:54:25;;;;;;;11.77;7.53;;;-0.40;69.60;;;;;;4999564;28;20457;-56
2021/12/22 08:56:52;;;;;;;11.60;7.25;;;-0.40;69.50;;;;;;5010826;28;20088;-55
2021/12/22 08:59:19;;;;;;;12.45;7.35;;;-0.30;69.60;;;;;;4994613;28;20081;-55
2021/12/22 09:01:46;;;;;;;13.18;8.10;;;-0.30;69.60;;;;;;4998974;28;20045;-56
2021/12/22 09:04:16;;;;;;;16.77;9.18;;;-0.20;69.60;;;;;;5001498;28;20141;-55
2021/12/22 09:06:43;;;;;;;15.23;9.10;;;-0.20;69.70;;;;;;5006048;28;20053;-56
2021/12/22 09:09:10;;;;;;;15.25;8.43;;;-0.10;70.00;;;;;;4998202;28;20046;-54
2021/12/22 09:11:40;;;;;;;18.63;10.73;;;-0.10;70.10;;;;;;5008712;28;20093;-55
2021/12/22 09:14:09;;;;;;;16.23;9.10;;;0.00;70.20;;;;;;4999260;28;20528;-54
2021/12/22 09:16:37;;;;;;;17.02;9.38;;;0.10;70.30;;;;;;5011554;28;20072;-56
2021/12/22 09:19:07;;;;;;;13.05;8.45;;;0.10;70.30;;;;;;5001012;28;20050;-55
2021/12/22 09:21:35;;;;;;;16.75;9.65;;;0.20;70.30;;;;;;5007603;28;20042;-54
2021/12/22 09:24:03;;;;;;;17.77;10.30;;;0.20;70.40;;;;;;5005516;28;20041;-55
2021/12/22 09:26:30;;;;;;;13.75;8.40;;;0.30;70.60;;;;;;5008225;28;20053;-54
2021/12/22 09:29:00;;;;;;;16.13;9.52;;;0.40;70.60;;;;;;5000696;28;20607;-56
2021/12/22 09:31:27;;;;;;;17.55;9.75;;;0.40;70.70;;;;;;5007314;28;20045;-55
2021/12/22 09:33:54;;;;;;;16.85;9.93;;;0.50;70.80;;;;;;5003547;28;20108;-56
2021/12/22 09:36:21;;;;;;;17.85;10.48;;;0.60;70.90;;;;;;5007275;28;20096;-56
2021/12/22 09:38:48;;;;;;;17.08;10.60;;;0.60;70.80;;;;;;4997463;28;20050;-55
2021/12/22 09:41:15;;;;;;;20.02;10.80;;;0.70;70.80;;;;;;5001694;28;20069;-52
2021/12/22 09:43:42;;;;;;;22.85;10.70;;;0.70;70.80;;;;;;5003969;28;20101;-55
2021/12/22 09:46:13;;;;;;;17.33;10.30;;;0.70;70.90;;;;;;5000943;28;20081;-55
2021/12/22 09:53:39;;;;;;;18.25;10.57;;;0.90;70.90;;;;;;5003539;28;20039;-53
2021/12/22 09:56:06;;;;;;;19.70;9.25;;;1.00;71.00;;;;;;4996866;28;20049;-55
2021/12/22 09:58:36;;;;;;;22.35;11.32;;;1.00;71.10;;;;;;5005599;28;20104;-55
2021/12/22 10:01:03;;;;;;;17.63;9.02;;;1.10;71.20;;;;;;5021787;28;20091;-56
2021/12/22 10:03:31;;;;;;;15.63;9.93;;;1.10;71.30;;;;;;5022031;28;20045;-55
2021/12/22 10:05:58;;;;;;;20.52;12.30;;;1.10;71.40;;;;;;5022235;28;20030;-55
2021/12/22 10:08:27;;;;;;;24.40;11.60;;;1.20;71.50;;;;;;5008435;28;20049;-53
2021/12/22 10:11:14;;;;;;;31.27;13.32;;;1.30;71.70;;;;;;5025156;28;20073;-53
2021/12/22 10:13:44;;;;;;;31.15;15.57;;;1.30;72.70;;;;;;5030834;28;20107;-56
2021/12/22 10:16:15;;;;;;;19.27;11.75;;;1.40;71.80;;;;;;5021888;28;20046;-54
2021/12/22 10:18:46;;;;;;;16.70;9.18;;;1.50;71.90;;;;;;5011282;28;20046;-56
2021/12/22 10:21:18;;;;;;;24.70;9.20;;;1.60;72.00;;;;;;5018848;28;20104;-55
2021/12/22 10:23:51;;;;;;;14.68;9.18;;;1.70;72.00;;;;;;5022350;28;20061;-55
2021/12/22 10:26:25;;;;;;;16.83;11.00;;;1.70;72.10;;;;;;5007352;28;20039;-56
2021/12/22 10:29:01;;;;;;;22.02;9.75;;;1.80;72.10;;;;;;5019749;28;20049;-55
2021/12/22 10:31:36;;;;;;;14.88;9.50;;;1.90;72.20;;;;;;5022814;28;20049;-54
2021/12/22 10:34:09;;;;;;;15.23;8.90;;;1.90;72.20;;;;;;5029228;28;20045;-56
2021/12/22 10:36:53;;;;;;;15.15;9.63;;;2.00;72.20;;;;;;5007051;28;20041;-54
2021/12/22 10:39:31;;;;;;;16.67;10.23;;;2.10;72.50;;;;;;5022406;28;20524;-55
2021/12/22 10:42:10;;;;;;;15.75;9.40;;;2.10;72.20;;;;;;5018344;28;20492;-52
2021/12/22 10:44:42;;;;;;;14.18;9.43;;;2.20;72.20;;;;;;5024054;28;20045;-54
2021/12/22 10:49:14;;;;;;;;;;;2.20;72.10;;;;;;5017557;28;20398;-55
2021/12/22 10:50:13;;;;;;;13.73;8.43;;;2.30;72.60;;;;;;5011601;28;20028;-55
2021/12/22 10:52:40;;;;;;;13.30;8.82;;;2.40;71.80;;;;;;5022524;28;20053;-56
2021/12/22 10:55:13;;;;;;;17.30;10.02;;;2.50;71.80;;;;;;5014989;28;20045;-55
2021/12/22 10:57:43;;;;;;;17.52;10.85;;;2.50;71.90;;;;;;5016855;28;20452;-56
2021/12/22 11:00:15;;;;;;;17.88;10.52;;;2.60;72.10;;;;;;5016430;28;20096;-54
2021/12/22 11:02:50;;;;;;;14.52;9.43;;;2.70;72.00;;;;;;5005115;28;20041;-54
2021/12/22 11:05:20;;;;;;;15.45;9.73;;;2.70;71.90;;;;;;5030901;22;20054;-48
2021/12/22 11:07:47;;;;;;;16.05;10.02;;;2.80;72.00;;;;;;5028301;28;20520;-51
2021/12/22 11:10:28;;;;;;;13.77;9.35;;;2.80;72.00;;;;;;5035327;28;20098;-49
2021/12/22 11:13:06;;;;;;;13.43;9.20;;;2.90;72.00;;;;;;5001842;28;20048;-50
2021/12/22 11:15:43;;;;;;;18.23;11.07;;;3.00;71.90;;;;;;5031252;28;20049;-52
2021/12/22 11:18:27;;;;;;;15.13;9.57;;;3.00;71.80;;;;;;5016143;28;20102;-50
2021/12/22 11:21:23;;;;;;;17.10;9.88;;;3.10;71.70;;;;;;5023401;28;20168;-48
2021/12/22 11:23:50;;;;;;;15.35;9.80;;;3.20;71.70;;;;;;5018580;28;20049;-53
2021/12/22 11:26:17;;;;;;;17.25;9.98;;;3.20;71.50;;;;;;4994499;28;20122;-50
2021/12/22 11:28:44;;;;;;;18.73;10.02;;;3.20;71.40;;;;;;5010811;28;20505;-52
2021/12/22 11:31:11;;;;;;;14.88;9.75;;;3.20;71.30;;;;;;5012889;28;20096;-52
2021/12/22 11:33:45;;;;;;;19.27;9.07;;;3.30;71.30;;;;;;5011836;28;20049;-49
2021/12/22 11:36:14;;;;;;;15.30;11.13;;;3.30;71.20;;;;;;5026136;28;20042;-50
2021/12/22 11:38:41;;;;;;;15.68;10.07;;;3.30;71.10;;;;;;5015954;28;20076;-48
2021/12/22 11:41:15;;;;;;;17.13;9.80;;;3.40;71.10;;;;;;5025257;28;20127;-50
2021/12/22 11:43:43;;;;;;;16.85;9.45;;;3.40;71.10;;;;;;5011295;28;20096;-50
2021/12/22 11:46:10;;;;;;;18.65;9.73;;;3.40;71.00;;;;;;5017074;28;20099;-49
2021/12/22 11:48:39;;;;;;;14.00;9.75;;;3.40;71.00;;;;;;5017979;28;20053;-49
2021/12/22 11:51:24;;;;;;;13.60;9.13;;;3.40;71.00;;;;;;5024497;28;20038;-52
2021/12/22 11:53:53;;;;;;;13.88;9.18;;;3.40;71.10;;;;;;5019366;28;20574;-50
2021/12/22 11:56:57;;;;;;;17.60;9.65;;;3.50;71.20;;;;;;5020710;28;20041;-49
2021/12/22 11:59:38;;;;;;;15.00;10.02;;;3.50;71.30;;;;;;4923281;29;20051;-53
2021/12/22 12:02:34;;;;;;;18.08;10.60;;;3.50;71.10;;;;;;5006155;28;20062;-50
2021/12/22 12:05:20;;;;;;;20.50;11.52;;;3.60;71.20;;;;;;5012986;28;20050;-49
2021/12/22 12:07:58;;;;;;;16.50;9.75;;;3.60;71.20;;;;;;5016026;28;20046;-49
2021/12/22 12:10:38;;;;;;;21.85;12.20;;;3.70;71.20;;;;;;5020801;28;20067;-49
2021/12/22 12:13:15;;;;;;;17.40;10.90;;;3.70;71.20;;;;;;5012045;28;20050;-52
2021/12/22 12:22:11;;;;;;;19.67;10.70;;;3.80;71.10;;;;;;5030605;28;20041;-49
2021/12/22 12:24:42;;;;;;;15.18;10.13;;;3.90;70.90;;;;;;5027436;28;20517;-49
2021/12/22 12:27:37;;;;;;;17.17;10.10;;;3.90;70.80;;;;;;5016259;28;20127;-49
2021/12/22 12:30:22;;;;;;;17.25;11.07;;;4.00;70.70;;;;;;5022744;28;20048;-50
2021/12/22 12:32:53;;;;;;;21.58;11.10;;;3.90;70.90;;;;;;5017923;28;20510;-48
2021/12/22 12:35:20;;;;;;;20.17;10.88;;;4.00;70.70;;;;;;5010277;28;20034;-50
2021/12/22 12:38:15;;;;;;;21.73;11.82;;;4.00;70.60;;;;;;5016386;28;20409;-48
2021/12/22 12:40:57;;;;;;;16.77;9.93;;;4.00;70.50;;;;;;5031701;28;20045;-49
2021/12/22 12:46:25;;;;;;;19.33;10.68;;;4.10;70.40;;;;;;5028090;28;20102;-52
2021/12/22 12:48:56;;;;;;;;;;;4.10;70.30;;;;;;5005565;28;20483;-49
2021/12/22 12:51:33;;;;;;;19.67;9.50;;;4.00;70.40;;;;;;5026410;28;19996;-50
2021/12/22 12:54:16;;;;;;;19.25;10.70;;;4.20;70.20;;;;;;5021734;28;20527;-48
2021/12/22 12:56:46;;;;;;;17.23;10.85;;;4.20;70.20;;;;;;5019661;28;20044;-50
2021/12/22 12:59:33;;;;;;;20.63;10.95;;;4.20;70.20;;;;;;5022688;28;20493;-52
2021/12/22 13:02:00;;;;;;;19.15;11.68;;;4.20;70.20;;;;;;5016036;28;20046;-49
2021/12/22 13:04:36;;;;;;;16.48;10.57;;;4.30;70.20;;;;;;5028109;28;20081;-48
2021/12/22 13:07:15;;;;;;;20.15;10.60;;;4.20;70.10;;;;;;5017113;28;20048;-55
2021/12/22 13:09:58;;;;;;;18.70;10.70;;;4.30;70.00;;;;;;5027156;28;20053;-50
2021/12/22 13:12:35;;;;;;;19.20;10.63;;;4.30;70.00;;;;;;5025058;28;20037;-49
2021/12/22 13:17:57;;;;;;;17.42;11.25;;;4.30;70.00;;;;;;5017118;28;20555;-48
2021/12/22 13:20:28;;;;;;;16.58;11.25;;;4.30;70.00;;;;;;5030920;28;20037;-53
2021/12/22 13:23:01;;;;;;;20.55;12.30;;;4.40;70.00;;;;;;5005569;28;20069;-50
2021/12/22 13:25:34;;;;;;;21.02;10.73;;;4.40;70.00;;;;;;5022446;28;20045;-50